Time;durP1;ratioP1;P1;durP2;ratioP2;P2;SDS_P1;SDS_P2;PMS_P1;PMS_P2;Temp;Humidity;BMP_temperature;BMP_pressure;BME280_temperature;BME280_humidity;BME280_pressure;Samples;Min_cycle;Max_cycle;Signal;HPM_P1;HPM_P2
2022/06/03 00:01:08;;;;;;;10.30;4.53;;;10.80;99.90;;;;;;4897593;28;206775;-63
2022/06/03 00:03:48;;;;;;;10.75;4.00;;;10.80;99.90;;;;;;4906227;28;197101;-63
2022/06/03 00:06:14;;;;;;;9.68;3.83;;;10.70;99.90;;;;;;4919067;28;172646;-64
2022/06/03 00:09:01;;;;;;;11.13;4.53;;;10.70;99.90;;;;;;4902782;28;206463;-65
2022/06/03 00:11:55;;;;;;;11.93;4.43;;;10.70;99.90;;;;;;4926007;28;20039;-65
2022/06/03 00:14:55;;;;;;;11.85;3.95;;;10.70;99.90;;;;;;4882544;28;212120;-65
2022/06/03 00:17:42;;;;;;;10.93;4.28;;;10.60;99.90;;;;;;4939667;28;20137;-66
2022/06/03 00:20:35;;;;;;;9.43;4.03;;;10.60;99.90;;;;;;4896030;28;209826;-65
2022/06/03 00:23:16;;;;;;;10.27;4.40;;;10.60;99.90;;;;;;4939000;28;20047;-66
2022/06/03 00:25:52;;;;;;;10.85;4.68;;;10.60;99.90;;;;;;4892823;28;215242;-64
2022/06/03 00:28:29;;;;;;;13.13;5.05;;;10.50;99.90;;;;;;4963007;28;20053;-65
2022/06/03 00:31:10;;;;;;;10.82;4.38;;;10.50;99.90;;;;;;4950803;28;206649;-66
2022/06/03 00:34:08;;;;;;;10.25;4.28;;;10.40;99.90;;;;;;4973139;28;217247;-66
2022/06/03 00:37:18;;;;;;;12.13;4.88;;;10.40;99.90;;;;;;5006615;28;20064;-64
2022/06/03 00:39:56;;;;;;;11.10;4.65;;;10.40;99.90;;;;;;4968714;28;219339;-66
2022/06/03 00:42:42;;;;;;;11.27;4.97;;;10.30;99.90;;;;;;5017014;28;20443;-66
2022/06/03 00:45:29;;;;;;;14.13;5.13;;;10.30;99.90;;;;;;4968990;28;213021;-66
2022/06/03 00:48:20;;;;;;;11.65;4.88;;;10.30;99.90;;;;;;5022427;28;20133;-65
2022/06/03 00:50:52;;;;;;;11.75;4.72;;;10.30;99.90;;;;;;4956230;28;208990;-65
2022/06/03 00:54:00;;;;;;;11.25;4.88;;;10.20;99.90;;;;;;5023653;28;20072;-62
2022/06/03 00:56:38;;;;;;;13.55;5.80;;;10.20;99.90;;;;;;4949115;28;69866;-65
2022/06/03 00:59:10;;;;;;;11.88;5.18;;;10.10;99.90;;;;;;4961364;28;244400;-65
2022/06/03 01:01:54;;;;;;;10.68;5.35;;;10.10;99.90;;;;;;5016018;28;20064;-65
2022/06/03 01:04:45;;;;;;;13.85;5.80;;;10.10;99.90;;;;;;4967651;28;213456;-65
2022/06/03 01:07:33;;;;;;;15.18;5.70;;;10.10;99.90;;;;;;5015085;28;20057;-63
2022/06/03 01:10:23;;;;;;;14.57;5.90;;;10.00;99.90;;;;;;4973951;28;214192;-65
2022/06/03 01:13:27;;;;;;;13.13;5.80;;;10.00;99.90;;;;;;5029331;28;20499;-63
2022/06/03 01:16:04;;;;;;;11.70;5.55;;;10.00;99.90;;;;;;4953098;28;206826;-65
2022/06/03 01:18:49;;;;;;;15.07;5.23;;;9.90;99.90;;;;;;4979923;28;216537;-65
2022/06/03 01:21:33;;;;;;;12.30;5.55;;;9.90;99.90;;;;;;5007950;28;122252;-63
2022/06/03 01:24:30;;;;;;;13.07;6.10;;;9.90;99.90;;;;;;4976423;28;229311;-66
2022/06/03 01:27:44;;;;;;;13.07;6.03;;;9.90;99.90;;;;;;4990525;28;20066;-64
2022/06/03 01:30:37;;;;;;;11.70;5.60;;;9.90;99.90;;;;;;4953283;28;223869;-65
2022/06/03 01:33:03;;;;;;;13.90;5.65;;;9.80;99.90;;;;;;5023597;28;20385;-65
2022/06/03 01:36:08;;;;;;;13.23;6.07;;;9.80;99.90;;;;;;4970762;28;222872;-65
2022/06/03 01:38:49;;;;;;;14.20;6.20;;;9.80;99.90;;;;;;4980672;28;224212;-63
2022/06/03 01:41:34;;;;;;;13.68;6.25;;;9.80;99.90;;;;;;5020024;28;139336;-66
2022/06/03 01:44:15;;;;;;;10.88;5.85;;;9.70;99.90;;;;;;4977281;28;212091;-65
2022/06/03 01:47:10;;;;;;;12.48;6.00;;;9.70;99.90;;;;;;4994817;28;20056;-65
2022/06/03 01:50:10;;;;;;;12.32;6.65;;;9.70;99.90;;;;;;4954611;28;212547;-65
2022/06/03 01:52:36;;;;;;;11.65;6.30;;;9.60;99.90;;;;;;5021815;28;20120;-66
2022/06/03 01:55:34;;;;;;;13.02;5.82;;;9.60;99.90;;;;;;4963254;28;210806;-65
2022/06/03 01:58:11;;;;;;;12.10;6.07;;;9.60;99.90;;;;;;5048051;28;20057;-66
2022/06/03 02:00:44;;;;;;;12.77;6.03;;;9.60;99.90;;;;;;4976380;28;209145;-65
2022/06/03 02:03:30;;;;;;;13.40;6.47;;;9.50;99.90;;;;;;5032841;28;20057;-66
2022/06/03 02:06:21;;;;;;;14.48;6.25;;;9.50;99.90;;;;;;4949653;28;206556;-65
2022/06/03 02:08:56;;;;;;;11.47;6.20;;;9.50;99.90;;;;;;4967872;28;212861;-67
2022/06/03 02:11:59;;;;;;;16.92;6.68;;;9.50;99.90;;;;;;5009643;28;210817;-66
2022/06/03 02:14:44;;;;;;;14.50;6.63;;;9.40;99.90;;;;;;4955809;28;212409;-63
2022/06/03 02:17:41;;;;;;;14.68;6.65;;;9.40;99.90;;;;;;5014523;28;20506;-66
2022/06/03 02:20:37;;;;;;;12.75;6.40;;;9.40;99.90;;;;;;4962676;28;212880;-66
2022/06/03 02:23:16;;;;;;;11.05;6.40;;;9.40;99.90;;;;;;5033825;28;20060;-66
2022/06/03 02:26:11;;;;;;;12.32;6.60;;;9.30;99.90;;;;;;4967052;28;210550;-68
2022/06/03 02:28:46;;;;;;;12.57;6.32;;;9.30;99.90;;;;;;4980175;28;208994;-68
2022/06/03 02:31:36;;;;;;;13.30;6.50;;;9.30;99.90;;;;;;4994177;28;175916;-69
2022/06/03 02:34:04;;;;;;;11.35;6.70;;;9.20;99.90;;;;;;4967750;28;214143;-68
2022/06/03 02:36:56;;;;;;;13.15;6.70;;;9.30;99.90;;;;;;5011161;28;20052;-68
2022/06/03 02:39:47;;;;;;;15.23;7.00;;;9.20;99.90;;;;;;4970654;28;211052;-68
2022/06/03 02:42:51;;;;;;;13.18;6.40;;;9.20;99.90;;;;;;5026751;28;20046;-68
2022/06/03 02:45:44;;;;;;;13.48;6.43;;;9.20;99.90;;;;;;4957409;28;220420;-68
2022/06/03 02:48:25;;;;;;;14.00;6.60;;;9.20;99.90;;;;;;5022535;28;20045;-68
2022/06/03 02:51:18;;;;;;;14.55;6.93;;;9.20;99.90;;;;;;4983527;28;175685;-68
2022/06/03 02:54:15;;;;;;;13.88;6.63;;;9.20;99.90;;;;;;4982924;28;211003;-68
2022/06/03 02:56:50;;;;;;;13.60;6.93;;;9.10;99.90;;;;;;4982283;28;20876;-69
2022/06/03 02:59:48;;;;;;;14.47;7.10;;;9.10;99.90;;;;;;4956102;28;206252;-68
2022/06/03 03:02:59;;;;;;;12.93;6.68;;;9.10;99.90;;;;;;5007061;28;20053;-68
2022/06/03 03:06:03;;;;;;;12.77;6.50;;;9.10;99.90;;;;;;4845942;28;210885;-68
2022/06/03 03:09:06;;;;;;;14.63;7.53;;;9.10;99.90;;;;;;4919223;28;206988;-68
2022/06/03 03:12:10;;;;;;;11.82;7.07;;;9.10;99.90;;;;;;4921320;28;20492;-69
2022/06/03 03:14:58;;;;;;;14.77;6.68;;;9.00;99.90;;;;;;4828746;29;214443;-68
2022/06/03 03:17:42;;;;;;;12.50;6.95;;;9.00;99.90;;;;;;4880387;29;20115;-69
2022/06/03 03:20:26;;;;;;;14.50;6.93;;;9.00;99.90;;;;;;4828490;29;190749;-68
2022/06/03 03:22:58;;;;;;;13.00;6.93;;;9.00;99.90;;;;;;4880266;29;20056;-67
2022/06/03 03:25:56;;;;;;;11.88;7.10;;;9.00;99.90;;;;;;4830044;29;234059;-67
2022/06/03 03:28:25;;;;;;;13.15;6.82;;;9.00;99.90;;;;;;4867811;29;20793;-68
2022/06/03 03:31:28;;;;;;;15.40;8.15;;;9.00;99.90;;;;;;4815387;29;206893;-70
2022/06/03 03:34:00;;;;;;;13.52;7.30;;;9.10;99.90;;;;;;4839979;29;208651;-67
2022/06/03 03:37:08;;;;;;;13.45;7.18;;;9.10;99.90;;;;;;4861577;29;253417;-68
2022/06/03 03:40:08;;;;;;;12.30;7.15;;;9.10;99.90;;;;;;4795913;29;216687;-68
2022/06/03 03:42:51;;;;;;;12.98;7.07;;;9.20;99.90;;;;;;4860428;29;20164;-69
2022/06/03 03:46:01;;;;;;;13.98;7.03;;;9.20;99.90;;;;;;4830975;29;133338;-68
2022/06/03 03:48:43;;;;;;;14.18;7.30;;;9.30;99.90;;;;;;4786760;29;222309;-68
2022/06/03 03:51:26;;;;;;;13.95;7.13;;;9.30;99.90;;;;;;4851139;29;28237;-67
2022/06/03 03:54:13;;;;;;;13.60;6.88;;;9.40;99.90;;;;;;4848281;28;206521;-67
2022/06/03 03:57:00;;;;;;;16.73;8.45;;;9.40;99.90;;;;;;4880185;29;20442;-67
2022/06/03 04:00:00;;;;;;;13.75;7.85;;;9.50;99.90;;;;;;4845597;28;221911;-67
2022/06/03 04:02:38;;;;;;;13.68;7.68;;;9.50;99.90;;;;;;4891612;29;20509;-66
2022/06/03 04:05:38;;;;;;;14.88;7.45;;;9.60;99.90;;;;;;4838014;29;210602;-67
2022/06/03 04:08:25;;;;;;;13.52;7.07;;;9.70;99.90;;;;;;4889681;29;20053;-68
2022/06/03 04:11:06;;;;;;;12.63;7.40;;;9.70;99.90;;;;;;4865158;29;209290;-66
2022/06/03 04:14:02;;;;;;;14.18;7.45;;;9.80;99.90;;;;;;4852410;29;209641;-67
2022/06/03 04:16:50;;;;;;;13.15;7.60;;;9.90;99.90;;;;;;4907328;28;21802;-67
2022/06/03 04:19:34;;;;;;;14.53;7.47;;;9.90;99.90;;;;;;4921393;28;227938;-67
2022/06/03 04:22:25;;;;;;;14.55;7.38;;;9.90;99.90;;;;;;5016355;28;20437;-67
2022/06/03 04:25:30;;;;;;;14.63;7.18;;;10.00;99.90;;;;;;4958113;28;211444;-68
2022/06/03 04:28:15;;;;;;;13.93;7.03;;;10.00;99.90;;;;;;5029016;28;20049;-67
2022/06/03 04:31:12;;;;;;;12.77;6.78;;;10.00;99.90;;;;;;4937064;28;288821;-68
2022/06/03 04:34:11;;;;;;;14.98;7.07;;;10.10;99.90;;;;;;4979082;28;215170;-68
2022/06/03 04:36:53;;;;;;;15.15;7.32;;;10.10;99.90;;;;;;5008438;28;20040;-67
2022/06/03 04:39:22;;;;;;;12.55;6.10;;;10.10;99.90;;;;;;4966350;28;222017;-67
2022/06/03 04:42:10;;;;;;;14.85;7.07;;;10.20;99.90;;;;;;5027444;28;20060;-68
2022/06/03 04:45:14;;;;;;;13.27;7.22;;;10.30;99.90;;;;;;4968284;28;206235;-69
2022/06/03 04:48:12;;;;;;;13.32;6.85;;;10.30;99.90;;;;;;5020888;28;20045;-67
2022/06/03 04:50:44;;;;;;;14.27;6.97;;;10.40;99.90;;;;;;4955560;28;244404;-68
2022/06/03 04:53:19;;;;;;;12.93;7.03;;;10.50;99.90;;;;;;5021588;28;20418;-68
2022/06/03 04:56:06;;;;;;;14.80;7.32;;;10.60;99.90;;;;;;4948846;28;580185;-68
2022/06/03 04:58:54;;;;;;;14.43;6.80;;;10.70;99.90;;;;;;4965424;28;219067;-68
2022/06/03 05:01:51;;;;;;;14.98;7.40;;;10.70;99.90;;;;;;4993681;28;326446;-69
2022/06/03 05:04:47;;;;;;;14.27;7.18;;;10.80;99.90;;;;;;4943636;28;240916;-68
2022/06/03 05:07:55;;;;;;;12.68;7.07;;;10.90;99.90;;;;;;5021735;28;20061;-70
2022/06/03 05:10:50;;;;;;;14.02;6.45;;;11.00;99.90;;;;;;4896874;28;202540;-67
2022/06/03 05:13:48;;;;;;;14.90;6.93;;;11.10;99.90;;;;;;4908761;29;20493;-68
2022/06/03 05:16:38;;;;;;;13.35;6.20;;;11.20;99.90;;;;;;4832492;29;210071;-67
2022/06/03 05:19:34;;;;;;;14.43;6.47;;;11.40;99.90;;;;;;4806230;29;251047;-69
2022/06/03 05:22:13;;;;;;;12.63;6.13;;;11.50;99.90;;;;;;4883397;29;20079;-68
2022/06/03 05:24:58;;;;;;;13.10;5.53;;;11.60;99.90;;;;;;4857083;29;131103;-68
2022/06/03 05:27:40;;;;;;;12.05;5.55;;;11.70;99.90;;;;;;4905964;29;20096;-68
2022/06/03 05:30:21;;;;;;;13.50;5.80;;;11.80;99.90;;;;;;4846625;29;206698;-67
2022/06/03 05:32:56;;;;;;;;;;;12.00;99.90;;;;;;4897696;29;20081;-67
2022/06/03 05:36:15;;;;;;;11.60;5.10;;;12.10;99.90;;;;;;4827863;29;241184;-68
2022/06/03 05:39:04;;;;;;;15.27;5.77;;;12.20;99.90;;;;;;4821116;29;222510;-68
2022/06/03 05:42:23;;;;;;;13.43;5.47;;;12.40;99.90;;;;;;4843236;29;20045;-67
2022/06/03 05:44:52;;;;;;;10.65;4.82;;;12.50;99.90;;;;;;4813328;29;207317;-67
2022/06/03 05:47:23;;;;;;;12.77;5.05;;;12.60;99.90;;;;;;4879630;29;20417;-67
2022/06/03 05:50:02;;;;;;;10.18;4.72;;;12.70;99.90;;;;;;4871880;28;208631;-67
2022/06/03 05:52:46;;;;;;;10.80;4.47;;;12.80;99.90;;;;;;4958415;28;20070;-67
2022/06/03 05:55:27;;;;;;;10.63;4.63;;;13.00;99.90;;;;;;4924737;28;207036;-68
2022/06/03 05:58:06;;;;;;;9.95;4.18;;;13.10;99.90;;;;;;4962996;28;20078;-67
2022/06/03 06:00:43;;;;;;;9.27;3.67;;;13.40;99.90;;;;;;4894186;28;222876;-65
2022/06/03 06:03:23;;;;;;;10.45;3.58;;;13.60;99.90;;;;;;4960406;28;20401;-65
2022/06/03 06:06:07;;;;;;;10.02;3.28;;;13.90;99.90;;;;;;4875279;28;206607;-65
2022/06/03 06:08:52;;;;;;;9.43;3.80;;;14.20;99.90;;;;;;4914890;28;218055;-64
2022/06/03 06:11:53;;;;;;;10.27;3.55;;;14.40;99.90;;;;;;4991942;28;214461;-66
2022/06/03 06:14:29;;;;;;;8.52;3.45;;;14.60;99.90;;;;;;4960038;28;214860;-66
2022/06/03 06:17:01;;;;;;;8.00;3.08;;;14.70;99.90;;;;;;5018208;28;20129;-66
2022/06/03 06:19:39;;;;;;;10.15;3.20;;;14.90;99.90;;;;;;4967779;28;213953;-65
2022/06/03 06:22:09;;;;;;;10.32;3.30;;;15.20;99.90;;;;;;5022463;28;20394;-63
2022/06/03 06:24:35;;;;;;;10.05;3.55;;;15.40;99.90;;;;;;4957601;28;220084;-65
2022/06/03 06:27:54;;;;;;;8.93;2.70;;;15.50;99.90;;;;;;5003549;28;20418;-63
2022/06/03 06:30:36;;;;;;;15.38;2.83;;;15.70;99.90;;;;;;4886627;28;206555;-65
2022/06/03 06:33:34;;;;;;;10.73;2.53;;;15.90;99.90;;;;;;4970925;28;20271;-65
2022/06/03 06:36:08;;;;;;;9.45;2.63;;;16.10;99.90;;;;;;4893121;28;209339;-65
2022/06/03 06:38:40;;;;;;;9.03;2.53;;;16.30;99.90;;;;;;4912872;28;212274;-66
2022/06/03 06:41:19;;;;;;;8.13;2.38;;;16.50;99.90;;;;;;4937127;28;176351;-65
2022/06/03 06:43:54;;;;;;;8.55;2.22;;;16.70;99.90;;;;;;4916767;28;217271;-65
2022/06/03 06:46:43;;;;;;;8.07;2.30;;;16.90;99.90;;;;;;4945592;28;172882;-64
2022/06/03 06:49:33;;;;;;;8.30;2.10;;;17.10;99.90;;;;;;4923683;28;128385;-63
2022/06/03 06:52:21;;;;;;;9.13;2.15;;;17.40;99.90;;;;;;4965676;28;20161;-64
2022/06/03 06:54:59;;;;;;;8.63;2.15;;;17.60;99.90;;;;;;4906778;28;206393;-64
2022/06/03 06:57:38;;;;;;;7.75;2.13;;;17.70;99.90;;;;;;4965231;28;20433;-65
2022/06/03 07:00:16;;;;;;;11.50;2.30;;;17.90;99.90;;;;;;4886943;28;207791;-65
2022/06/03 07:02:42;;;;;;;6.88;1.80;;;18.00;99.90;;;;;;4965472;28;20138;-65
2022/06/03 07:05:18;;;;;;;8.98;2.55;;;18.20;99.90;;;;;;4900206;28;125779;-65
2022/06/03 07:07:47;;;;;;;6.65;1.90;;;18.50;99.90;;;;;;5019035;28;20053;-65
2022/06/03 07:10:23;;;;;;;9.38;2.20;;;18.70;99.90;;;;;;4978668;28;227024;-65
2022/06/03 07:12:58;;;;;;;6.63;1.75;;;19.00;99.90;;;;;;5022287;28;20050;-65
2022/06/03 07:15:29;;;;;;;7.50;1.90;;;19.10;99.20;;;;;;4970144;28;214460;-66
2022/06/03 07:21:16;;;;;;;12.77;2.13;;;19.40;95.90;;;;;;4942172;28;213015;-64
2022/06/03 07:24:23;;;;;;;11.27;2.00;;;19.40;99.40;;;;;;4975246;28;212101;-66
2022/06/03 07:26:54;;;;;;;14.02;2.10;;;19.60;95.60;;;;;;4936702;28;20058;-66
2022/06/03 07:29:32;;;;;;;8.43;1.80;;;19.70;97.10;;;;;;4904570;28;218056;-65
2022/06/03 07:32:16;;;;;;;7.35;1.77;;;19.90;96.10;;;;;;4953960;28;20061;-66
2022/06/03 07:35:05;;;;;;;9.38;2.00;;;20.10;95.20;;;;;;4885268;28;205780;-63
2022/06/03 07:37:40;;;;;;;7.90;1.88;;;20.20;94.30;;;;;;4957014;28;20523;-65
2022/06/03 07:40:17;;;;;;;6.57;1.73;;;20.40;93.20;;;;;;4910811;28;206640;-65
2022/06/03 07:43:05;;;;;;;5.97;1.40;;;20.60;93.40;;;;;;4955894;28;20050;-65
2022/06/03 07:45:42;;;;;;;7.97;2.03;;;20.90;93.00;;;;;;4879385;28;207659;-64
2022/06/03 07:48:23;;;;;;;6.40;1.80;;;21.10;91.60;;;;;;4958388;28;20069;-65
2022/06/03 07:50:53;;;;;;;8.40;1.90;;;21.30;90.60;;;;;;4900093;28;269395;-66
2022/06/03 07:53:28;;;;;;;6.85;2.10;;;21.60;90.70;;;;;;4961934;28;20054;-66
2022/06/03 07:55:56;;;;;;;6.28;1.70;;;21.70;89.40;;;;;;4902142;28;236556;-65
2022/06/03 07:58:26;;;;;;;8.07;2.15;;;21.80;87.40;;;;;;4961733;28;20046;-64
2022/06/03 08:00:52;;;;;;;7.13;1.92;;;21.90;86.00;;;;;;4894168;28;232983;-66
2022/06/03 08:03:21;;;;;;;5.78;1.60;;;22.10;85.30;;;;;;4974817;28;20053;-65
2022/06/03 08:06:01;;;;;;;7.43;1.83;;;22.40;84.10;;;;;;4927903;28;207711;-63
2022/06/03 08:11:17;;;;;;;9.13;2.00;;;22.60;78.60;;;;;;4984709;28;238945;-67
2022/06/03 08:13:51;;;;;;;7.03;1.67;;;22.80;78.60;;;;;;4971037;28;211106;-66
2022/06/03 08:16:34;;;;;;;7.88;1.90;;;23.00;77.00;;;;;;5012035;28;35762;-67
2022/06/03 08:19:16;;;;;;;8.35;1.58;;;23.10;72.30;;;;;;4980607;28;210808;-66
2022/06/03 08:21:53;;;;;;;6.35;1.55;;;23.20;74.20;;;;;;5004660;28;20041;-66
2022/06/03 08:24:42;;;;;;;7.22;1.80;;;23.40;69.40;;;;;;4958259;28;217771;-65
2022/06/03 08:27:15;;;;;;;6.85;1.77;;;23.50;72.10;;;;;;5022862;28;20061;-66
2022/06/03 08:29:45;;;;;;;8.30;1.80;;;23.80;70.00;;;;;;4963463;28;213479;-65
2022/06/03 08:32:16;;;;;;;7.25;1.65;;;24.00;69.60;;;;;;5034154;28;20061;-66
2022/06/03 08:34:49;;;;;;;11.93;2.20;;;24.20;67.80;;;;;;4962420;28;215247;-64
2022/06/03 08:37:33;;;;;;;11.27;2.10;;;24.30;65.90;;;;;;5024431;28;20346;-66
2022/06/03 08:40:09;;;;;;;7.90;1.95;;;24.40;65.30;;;;;;4958598;28;215281;-66
2022/06/03 08:42:57;;;;;;;7.70;1.80;;;24.50;64.90;;;;;;5027293;28;20511;-66
2022/06/03 08:45:50;;;;;;;7.63;2.08;;;24.80;62.30;;;;;;4968675;28;210051;-66
2022/06/03 08:48:20;;;;;;;6.05;1.75;;;25.00;62.50;;;;;;5022739;28;20418;-66
2022/06/03 08:50:52;;;;;;;8.50;2.20;;;25.10;63.00;;;;;;4963174;28;208425;-65
2022/06/03 08:53:39;;;;;;;7.88;2.00;;;25.40;59.90;;;;;;5021639;28;20261;-66
2022/06/03 08:56:07;;;;;;;8.85;1.92;;;25.50;60.70;;;;;;4955881;28;214278;-67
2022/06/03 08:58:37;;;;;;;7.38;1.90;;;25.70;61.30;;;;;;4976411;28;215457;-66
2022/06/03 09:01:10;;;;;;;8.65;2.20;;;26.00;60.10;;;;;;5020726;28;131419;-65
2022/06/03 09:03:51;;;;;;;6.93;2.03;;;26.00;57.90;;;;;;4976188;28;215658;-65
2022/06/03 09:06:48;;;;;;;7.88;2.13;;;26.10;56.70;;;;;;4988317;28;170008;-66
2022/06/03 09:09:45;;;;;;;8.40;2.35;;;26.10;54.00;;;;;;4960108;28;215275;-67
2022/06/03 09:12:19;;;;;;;8.07;2.05;;;26.20;56.70;;;;;;5019655;28;20545;-67
2022/06/03 09:14:49;;;;;;;7.10;2.05;;;26.20;56.20;;;;;;4967719;28;250514;-66
2022/06/03 09:17:42;;;;;;;5.73;1.73;;;26.50;56.10;;;;;;5020237;28;20053;-67
2022/06/03 09:20:24;;;;;;;6.65;2.00;;;26.70;52.90;;;;;;4959823;28;207225;-66
2022/06/03 09:22:56;;;;;;;8.15;2.10;;;26.60;52.40;;;;;;5029751;28;20037;-66
2022/06/03 09:25:23;;;;;;;7.05;2.13;;;26.60;53.60;;;;;;4969670;28;157061;-66
2022/06/03 09:27:51;;;;;;;8.07;2.00;;;26.70;53.60;;;;;;5025474;28;20053;-66
2022/06/03 09:30:28;;;;;;;7.15;1.90;;;26.90;53.30;;;;;;4977719;28;221536;-65
2022/06/03 09:32:57;;;;;;;9.48;2.10;;;27.00;52.60;;;;;;5025019;28;20057;-65
2022/06/03 09:35:27;;;;;;;8.05;1.80;;;27.10;51.90;;;;;;4970928;28;213243;-66
2022/06/03 09:37:58;;;;;;;6.45;2.10;;;27.30;52.20;;;;;;5030440;28;20056;-66
2022/06/03 09:40:29;;;;;;;5.97;1.75;;;27.50;52.40;;;;;;4971047;28;212249;-66
2022/06/03 09:43:03;;;;;;;6.22;1.85;;;27.60;50.90;;;;;;5029223;28;20045;-65
2022/06/03 09:45:30;;;;;;;7.43;2.08;;;27.70;50.40;;;;;;4964239;28;249945;-67
2022/06/03 09:47:59;;;;;;;7.68;2.08;;;27.60;49.30;;;;;;5028083;28;20041;-67
2022/06/03 09:50:26;;;;;;;6.47;1.83;;;27.70;49.30;;;;;;4974183;28;214775;-66
2022/06/03 09:53:06;;;;;;;7.05;1.80;;;27.90;49.80;;;;;;5022267;28;20430;-66
2022/06/03 09:55:40;;;;;;;6.80;1.70;;;28.10;49.20;;;;;;4965787;28;213836;-66
2022/06/03 09:58:10;;;;;;;7.05;1.90;;;28.20;48.30;;;;;;5021320;28;20041;-66
2022/06/03 10:00:57;;;;;;;16.15;6.75;;;28.20;48.20;;;;;;4972335;28;213729;-67
2022/06/03 10:03:25;;;;;;;8.18;1.92;;;28.10;46.70;;;;;;5016937;28;210402;-66
2022/06/03 10:05:55;;;;;;;10.38;3.75;;;28.10;47.70;;;;;;4965228;28;206737;-67
2022/06/03 10:08:28;;;;;;;9.05;2.05;;;28.10;46.70;;;;;;5018006;28;20053;-65
2022/06/03 10:13:42;;;;;;;7.53;1.60;;;28.10;46.90;;;;;;4973044;28;212730;-67
2022/06/03 10:16:10;;;;;;;8.02;1.50;;;28.30;47.30;;;;;;4992085;28;190612;-65
2022/06/03 10:18:41;;;;;;;9.05;1.73;;;28.50;46.20;;;;;;4975556;28;213569;-67
2022/06/03 10:21:07;;;;;;;7.50;1.58;;;28.60;46.70;;;;;;5001039;28;125507;-66
2022/06/03 10:23:43;;;;;;;9.15;1.50;;;28.80;46.70;;;;;;4978675;28;214783;-66
2022/06/03 10:26:17;;;;;;;6.97;1.58;;;29.00;45.80;;;;;;5006228;28;42219;-66
2022/06/03 10:28:43;;;;;;;5.97;1.40;;;29.20;45.40;;;;;;4980040;28;212485;-66
2022/06/03 10:31:16;;;;;;;7.25;1.60;;;28.70;44.40;;;;;;5022984;28;117849;-67
2022/06/03 10:33:56;;;;;;;5.70;1.60;;;28.70;44.20;;;;;;4974864;28;211273;-65
2022/06/03 10:36:28;;;;;;;6.82;1.65;;;28.90;44.20;;;;;;4997858;28;234782;-65
2022/06/03 10:38:54;;;;;;;7.05;1.50;;;28.50;44.60;;;;;;4975263;28;220135;-65
2022/06/03 10:41:31;;;;;;;6.45;1.50;;;28.40;45.80;;;;;;5005572;28;170045;-67
2022/06/03 10:43:57;;;;;;;6.70;1.67;;;28.60;45.10;;;;;;4978473;28;228328;-66
2022/06/03 10:46:24;;;;;;;6.10;1.48;;;28.80;44.30;;;;;;5016908;28;206221;-66
2022/06/03 10:48:52;;;;;;;5.88;1.40;;;29.00;44.80;;;;;;4986085;28;173372;-67
2022/06/03 11:02:38;;;;;;;7.80;1.50;;;29.90;42.40;;;;;;5015855;28;20068;-65
2022/06/03 11:05:24;;;;;;;5.53;1.27;;;29.80;42.80;;;;;;4944013;28;263039;-69
2022/06/03 11:08:21;;;;;;;6.28;1.60;;;30.30;43.70;;;;;;5025841;28;20048;-67
2022/06/03 11:10:51;;;;;;;5.93;1.40;;;30.60;42.20;;;;;;4881833;28;213399;-66
2022/06/03 11:13:31;;;;;;;6.47;1.50;;;30.50;42.70;;;;;;4959668;28;20055;-66
2022/06/03 11:16:22;;;;;;;6.32;1.40;;;30.70;42.20;;;;;;4906090;28;207035;-65
2022/06/03 11:18:49;;;;;;;4.88;1.38;;;30.80;41.40;;;;;;4922684;28;260883;-65
2022/06/03 11:21:26;;;;;;;6.57;1.35;;;30.80;41.40;;;;;;4943867;28;82913;-66
2022/06/03 11:24:00;;;;;;;7.55;1.50;;;30.70;41.10;;;;;;4926751;28;218736;-67
2022/06/03 11:26:33;;;;;;;4.70;1.35;;;30.70;41.10;;;;;;4929547;28;138271;-68
2022/06/03 11:29:25;;;;;;;7.78;1.50;;;30.60;40.80;;;;;;4924819;28;215703;-67
2022/06/03 11:31:52;;;;;;;4.97;1.20;;;30.80;41.20;;;;;;4962685;28;20397;-68
2022/06/03 11:34:43;;;;;;;5.35;1.33;;;30.70;40.80;;;;;;4894135;28;236526;-69
2022/06/03 11:37:17;;;;;;;6.18;1.40;;;30.70;40.70;;;;;;4944118;28;20392;-66
2022/06/03 11:39:55;;;;;;;9.15;1.42;;;30.80;41.30;;;;;;4905165;28;194401;-67
2022/06/03 11:42:26;;;;;;;6.97;1.40;;;30.80;40.40;;;;;;4961989;28;20070;-68
2022/06/03 11:45:18;;;;;;;5.47;1.40;;;30.70;41.40;;;;;;4907969;28;222183;-66
2022/06/03 11:48:01;;;;;;;5.13;1.20;;;30.80;39.80;;;;;;5006934;28;20054;-66
2022/06/03 11:50:29;;;;;;;6.78;1.60;;;31.00;41.10;;;;;;4971207;28;216077;-66
2022/06/03 11:52:57;;;;;;;7.60;1.50;;;31.30;40.70;;;;;;5030070;28;20049;-66
2022/06/03 11:55:26;;;;;;;6.32;1.50;;;31.50;40.30;;;;;;4966561;28;225781;-66
2022/06/03 11:58:04;;;;;;;5.47;1.50;;;31.50;39.80;;;;;;5034036;28;20446;-64
2022/06/03 12:00:34;;;;;;;4.70;1.30;;;31.30;40.20;;;;;;4966283;28;207628;-66
2022/06/03 12:03:45;;;;;;;7.57;1.50;;;31.40;40.10;;;;;;5029415;28;20080;-66
2022/06/03 12:06:35;;;;;;;6.32;1.30;;;30.90;38.20;;;;;;4942477;28;207551;-66
2022/06/03 12:09:20;;;;;;;7.32;1.65;;;31.00;40.50;;;;;;4967052;28;216698;-66
2022/06/03 12:14:45;;;;;;;5.57;1.30;;;31.70;40.20;;;;;;4959182;28;276142;-66
2022/06/03 12:17:11;;;;;;;6.28;1.60;;;32.00;39.60;;;;;;5025360;28;20057;-65
2022/06/03 12:19:40;;;;;;;7.80;1.48;;;32.20;39.10;;;;;;4961961;28;207585;-65
2022/06/03 12:22:30;;;;;;;5.72;1.40;;;32.30;38.70;;;;;;5023240;28;20064;-66
2022/06/03 12:25:02;;;;;;;6.97;1.40;;;32.50;39.20;;;;;;4961104;28;206952;-67
2022/06/03 12:27:39;;;;;;;5.15;1.40;;;32.10;39.10;;;;;;5022589;28;20049;-65
2022/06/03 12:30:17;;;;;;;7.85;1.45;;;32.20;38.80;;;;;;4976031;28;210023;-66
2022/06/03 12:33:19;;;;;;;7.72;1.60;;;32.20;38.00;;;;;;5027932;28;20490;-66
2022/06/03 12:35:56;;;;;;;5.38;1.52;;;32.50;38.30;;;;;;4947946;28;253376;-66
2022/06/03 12:38:23;;;;;;;6.35;1.40;;;32.60;37.90;;;;;;5020097;28;20062;-67
2022/06/03 12:41:01;;;;;;;5.75;1.30;;;32.70;38.00;;;;;;4964512;28;206178;-66
2022/06/03 12:43:30;;;;;;;6.60;1.30;;;32.20;36.80;;;;;;4992954;28;213065;-66
2022/06/03 12:46:10;;;;;;;4.85;1.20;;;31.70;38.50;;;;;;4994559;28;209828;-66
2022/06/03 12:48:51;;;;;;;6.38;1.40;;;31.40;36.30;;;;;;4974333;28;214345;-66
2022/06/03 12:51:18;;;;;;;5.60;1.40;;;31.40;38.00;;;;;;5015305;28;240986;-66
2022/06/03 12:53:46;;;;;;;5.45;1.40;;;31.40;38.10;;;;;;4978586;28;215467;-66
2022/06/03 12:56:41;;;;;;;6.07;1.40;;;31.80;38.10;;;;;;5007871;28;204859;-67
2022/06/03 12:59:23;;;;;;;7.72;1.35;;;32.10;36.30;;;;;;4957866;28;211019;-66
2022/06/03 13:02:00;;;;;;;5.55;1.30;;;32.20;37.40;;;;;;5021783;28;20049;-66
2022/06/03 13:04:26;;;;;;;6.75;1.30;;;32.20;37.50;;;;;;4954202;28;211924;-68
2022/06/03 13:07:30;;;;;;;6.05;1.40;;;32.20;38.50;;;;;;5022129;28;20054;-68
2022/06/03 13:10:02;;;;;;;7.03;1.23;;;32.40;37.10;;;;;;4951381;28;204794;-66
2022/06/03 13:12:31;;;;;;;5.82;1.38;;;32.40;38.40;;;;;;5023931;28;20057;-65
2022/06/03 13:15:21;;;;;;;5.57;1.40;;;32.40;38.00;;;;;;4966382;28;207150;-66
2022/06/03 13:18:18;;;;;;;6.80;1.48;;;31.90;36.80;;;;;;5024467;28;20042;-67
2022/06/03 13:21:10;;;;;;;5.70;1.20;;;31.60;38.80;;;;;;4971357;28;210143;-67
2022/06/03 13:24:00;;;;;;;5.65;1.35;;;31.40;38.50;;;;;;4987315;28;210848;-69
2022/06/03 13:26:27;;;;;;;5.55;1.30;;;31.50;38.20;;;;;;4929137;28;57533;-69
2022/06/03 13:29:01;;;;;;;4.50;1.30;;;31.50;39.00;;;;;;4916848;28;211029;-69
2022/06/03 13:31:41;;;;;;;6.35;1.48;;;31.50;38.40;;;;;;4939566;28;20038;-68
2022/06/03 13:34:10;;;;;;;6.63;1.42;;;31.20;37.00;;;;;;4897295;28;213219;-68
2022/06/03 13:36:51;;;;;;;4.97;1.20;;;30.90;39.10;;;;;;4949523;28;20469;-68
2022/06/03 13:39:28;;;;;;;6.75;1.27;;;30.90;39.00;;;;;;4882651;28;216716;-69
2022/06/03 13:45:03;;;;;;;6.22;1.42;;;31.40;38.10;;;;;;4910108;28;207834;-69
2022/06/03 13:47:31;;;;;;;5.70;1.40;;;31.20;37.60;;;;;;4964363;28;20066;-69
2022/06/03 13:50:26;;;;;;;5.05;1.30;;;31.10;38.60;;;;;;4884010;28;206767;-69
2022/06/03 13:52:56;;;;;;;5.70;1.30;;;31.30;38.10;;;;;;4954749;28;20061;-69
2022/06/03 13:55:42;;;;;;;6.13;1.40;;;31.00;38.50;;;;;;4886399;28;205821;-67
2022/06/03 13:58:35;;;;;;;6.88;1.38;;;30.90;38.40;;;;;;4963009;28;20058;-68
2022/06/03 14:01:07;;;;;;;5.85;1.40;;;31.00;37.70;;;;;;4896213;28;212148;-68
2022/06/03 14:04:00;;;;;;;5.80;1.40;;;30.20;38.30;;;;;;4944868;28;216875;-68
2022/06/03 14:06:39;;;;;;;8.45;1.33;;;30.20;37.30;;;;;;5001199;28;205848;-68
2022/06/03 14:09:29;;;;;;;7.70;1.23;;;30.20;38.30;;;;;;4988325;28;192307;-66
2022/06/03 14:12:16;;;;;;;5.20;1.20;;;30.10;37.90;;;;;;5025807;28;20466;-68
2022/06/03 14:15:14;;;;;;;6.47;1.40;;;30.30;38.70;;;;;;4966897;28;215070;-68
2022/06/03 14:17:55;;;;;;;5.25;1.20;;;30.30;38.60;;;;;;4983210;28;20077;-68
2022/06/03 14:20:36;;;;;;;4.47;1.20;;;30.10;38.50;;;;;;4904900;28;234217;-69